sensor_id;sensor_type;location;lat;lon;timestamp;P1;durP1;ratioP1;P2;durP2;ratioP2
65035;SDS011;51603;49.300;8.880;2023-04-24T00:01:38;1.73;;;0.93;;
65035;SDS011;51603;49.300;8.880;2023-04-24T00:04:04;4.87;;;1.10;;
65035;SDS011;51603;49.300;8.880;2023-04-24T00:06:32;3.27;;;1.03;;
65035;SDS011;51603;49.300;8.880;2023-04-24T00:09:01;1.90;;;0.93;;
65035;SDS011;51603;49.300;8.880;2023-04-24T00:11:27;1.90;;;0.97;;
65035;SDS011;51603;49.300;8.880;2023-04-24T00:13:53;1.87;;;1.00;;
65035;SDS011;51603;49.300;8.880;2023-04-24T00:16:19;1.67;;;0.90;;
65035;SDS011;51603;49.300;8.880;2023-04-24T00:18:44;1.33;;;0.80;;
65035;SDS011;51603;49.300;8.880;2023-04-24T00:21:10;1.97;;;0.90;;
65035;SDS011;51603;49.300;8.880;2023-04-24T00:23:36;1.60;;;1.23;;
65035;SDS011;51603;49.300;8.880;2023-04-24T00:26:01;2.10;;;0.90;;
65035;SDS011;51603;49.300;8.880;2023-04-24T00:28:27;2.20;;;1.00;;
65035;SDS011;51603;49.300;8.880;2023-04-24T00:30:53;2.57;;;1.20;;
65035;SDS011;51603;49.300;8.880;2023-04-24T00:33:19;2.27;;;1.03;;
65035;SDS011;51603;49.300;8.880;2023-04-24T00:35:45;1.87;;;0.87;;
65035;SDS011;51603;49.300;8.880;2023-04-24T00:38:10;2.33;;;1.07;;
65035;SDS011;51603;49.300;8.880;2023-04-24T00:40:36;1.83;;;1.20;;
65035;SDS011;51603;49.300;8.880;2023-04-24T00:43:01;2.93;;;1.20;;
65035;SDS011;51603;49.300;8.880;2023-04-24T00:45:27;2.10;;;1.13;;
65035;SDS011;51603;49.300;8.880;2023-04-24T00:47:53;3.37;;;0.83;;
65035;SDS011;51603;49.300;8.880;2023-04-24T00:50:18;2.23;;;0.90;;
65035;SDS011;51603;49.300;8.880;2023-04-24T00:52:46;1.93;;;0.93;;
65035;SDS011;51603;49.300;8.880;2023-04-24T00:55:12;1.77;;;0.90;;
65035;SDS011;51603;49.300;8.880;2023-04-24T00:57:37;1.97;;;1.00;;
65035;SDS011;51603;49.300;8.880;2023-04-24T01:00:04;2.50;;;1.00;;
65035;SDS011;51603;49.300;8.880;2023-04-24T01:02:31;6.23;;;0.97;;
65035;SDS011;51603;49.300;8.880;2023-04-24T01:04:59;1.40;;;0.90;;
65035;SDS011;51603;49.300;8.880;2023-04-24T01:07:25;1.57;;;0.80;;
65035;SDS011;51603;49.300;8.880;2023-04-24T01:09:52;2.77;;;0.80;;
65035;SDS011;51603;49.300;8.880;2023-04-24T01:12:18;1.67;;;1.10;;
65035;SDS011;51603;49.300;8.880;2023-04-24T01:14:44;4.90;;;1.10;;
65035;SDS011;51603;49.300;8.880;2023-04-24T01:17:10;2.20;;;0.97;;
65035;SDS011;51603;49.300;8.880;2023-04-24T01:19:35;1.27;;;0.90;;
65035;SDS011;51603;49.300;8.880;2023-04-24T01:22:02;2.60;;;1.20;;
65035;SDS011;51603;49.300;8.880;2023-04-24T01:24:28;1.00;;;0.90;;
65035;SDS011;51603;49.300;8.880;2023-04-24T01:26:54;2.07;;;0.80;;
65035;SDS011;51603;49.300;8.880;2023-04-24T01:29:20;2.40;;;1.00;;
65035;SDS011;51603;49.300;8.880;2023-04-24T01:31:46;2.63;;;0.90;;
65035;SDS011;51603;49.300;8.880;2023-04-24T01:34:12;2.13;;;1.03;;
65035;SDS011;51603;49.300;8.880;2023-04-24T01:36:38;2.33;;;1.00;;
65035;SDS011;51603;49.300;8.880;2023-04-24T01:39:05;1.87;;;0.90;;
65035;SDS011;51603;49.300;8.880;2023-04-24T01:41:31;2.53;;;1.10;;
65035;SDS011;51603;49.300;8.880;2023-04-24T01:43:57;1.37;;;0.83;;
65035;SDS011;51603;49.300;8.880;2023-04-24T01:46:23;2.60;;;1.10;;
65035;SDS011;51603;49.300;8.880;2023-04-24T01:48:49;1.93;;;0.90;;
65035;SDS011;51603;49.300;8.880;2023-04-24T01:51:16;1.83;;;1.30;;
65035;SDS011;51603;49.300;8.880;2023-04-24T01:53:42;1.23;;;0.97;;
65035;SDS011;51603;49.300;8.880;2023-04-24T01:56:07;1.50;;;1.00;;
65035;SDS011;51603;49.300;8.880;2023-04-24T01:58:33;3.93;;;0.90;;
65035;SDS011;51603;49.300;8.880;2023-04-24T02:00:59;2.07;;;0.90;;
65035;SDS011;51603;49.300;8.880;2023-04-24T02:03:26;2.27;;;0.90;;
65035;SDS011;51603;49.300;8.880;2023-04-24T02:05:51;1.30;;;0.80;;
65035;SDS011;51603;49.300;8.880;2023-04-24T02:08:17;1.00;;;0.73;;
65035;SDS011;51603;49.300;8.880;2023-04-24T02:10:42;5.40;;;1.50;;
65035;SDS011;51603;49.300;8.880;2023-04-24T02:13:09;1.37;;;0.90;;
65035;SDS011;51603;49.300;8.880;2023-04-24T02:15:35;2.13;;;0.60;;
65035;SDS011;51603;49.300;8.880;2023-04-24T02:18:01;4.33;;;1.47;;
65035;SDS011;51603;49.300;8.880;2023-04-24T02:20:26;1.20;;;0.80;;
65035;SDS011;51603;49.300;8.880;2023-04-24T02:22:52;0.90;;;0.80;;
65035;SDS011;51603;49.300;8.880;2023-04-24T02:25:18;1.90;;;1.00;;
65035;SDS011;51603;49.300;8.880;2023-04-24T02:27:43;2.53;;;1.00;;
65035;SDS011;51603;49.300;8.880;2023-04-24T02:30:09;1.83;;;1.37;;
65035;SDS011;51603;49.300;8.880;2023-04-24T02:32:35;3.10;;;1.20;;
65035;SDS011;51603;49.300;8.880;2023-04-24T02:35:00;1.60;;;0.90;;
65035;SDS011;51603;49.300;8.880;2023-04-24T02:37:26;1.73;;;0.80;;
65035;SDS011;51603;49.300;8.880;2023-04-24T02:39:51;3.63;;;1.50;;
65035;SDS011;51603;49.300;8.880;2023-04-24T02:42:17;2.57;;;1.10;;
65035;SDS011;51603;49.300;8.880;2023-04-24T02:44:42;1.60;;;1.10;;
65035;SDS011;51603;49.300;8.880;2023-04-24T02:47:08;3.23;;;0.93;;
65035;SDS011;51603;49.300;8.880;2023-04-24T02:49:34;1.50;;;1.37;;
65035;SDS011;51603;49.300;8.880;2023-04-24T02:51:59;2.60;;;1.10;;
65035;SDS011;51603;49.300;8.880;2023-04-24T02:54:25;3.77;;;1.20;;
65035;SDS011;51603;49.300;8.880;2023-04-24T02:56:50;3.00;;;1.10;;
65035;SDS011;51603;49.300;8.880;2023-04-24T02:59:16;4.07;;;1.23;;
65035;SDS011;51603;49.300;8.880;2023-04-24T03:01:41;1.50;;;0.93;;
65035;SDS011;51603;49.300;8.880;2023-04-24T03:04:07;3.30;;;1.23;;
65035;SDS011;51603;49.300;8.880;2023-04-24T03:06:32;2.50;;;1.10;;
65035;SDS011;51603;49.300;8.880;2023-04-24T03:09:00;1.20;;;0.90;;
65035;SDS011;51603;49.300;8.880;2023-04-24T03:11:26;4.30;;;1.47;;
65035;SDS011;51603;49.300;8.880;2023-04-24T03:13:51;3.10;;;1.30;;
65035;SDS011;51603;49.300;8.880;2023-04-24T03:16:17;3.47;;;1.67;;
65035;SDS011;51603;49.300;8.880;2023-04-24T03:18:42;6.70;;;1.50;;
65035;SDS011;51603;49.300;8.880;2023-04-24T03:21:08;4.00;;;1.73;;
65035;SDS011;51603;49.300;8.880;2023-04-24T03:23:33;2.70;;;1.70;;
65035;SDS011;51603;49.300;8.880;2023-04-24T03:25:59;2.03;;;1.30;;
65035;SDS011;51603;49.300;8.880;2023-04-24T03:28:25;3.83;;;1.83;;
65035;SDS011;51603;49.300;8.880;2023-04-24T03:30:51;3.20;;;1.53;;
65035;SDS011;51603;49.300;8.880;2023-04-24T03:33:17;5.33;;;1.20;;
65035;SDS011;51603;49.300;8.880;2023-04-24T03:35:42;4.70;;;1.47;;
65035;SDS011;51603;49.300;8.880;2023-04-24T03:38:08;3.10;;;1.50;;
65035;SDS011;51603;49.300;8.880;2023-04-24T03:40:33;1.83;;;1.10;;
65035;SDS011;51603;49.300;8.880;2023-04-24T03:42:59;2.00;;;1.60;;
65035;SDS011;51603;49.300;8.880;2023-04-24T03:45:25;4.80;;;1.97;;
65035;SDS011;51603;49.300;8.880;2023-04-24T03:47:50;2.20;;;1.80;;
65035;SDS011;51603;49.300;8.880;2023-04-24T03:50:16;2.00;;;1.80;;
65035;SDS011;51603;49.300;8.880;2023-04-24T03:52:41;3.13;;;2.63;;
65035;SDS011;51603;49.300;8.880;2023-04-24T03:55:07;2.60;;;2.33;;
65035;SDS011;51603;49.300;8.880;2023-04-24T03:57:33;3.10;;;1.90;;
65035;SDS011;51603;49.300;8.880;2023-04-24T03:59:58;2.60;;;2.23;;
65035;SDS011;51603;49.300;8.880;2023-04-24T04:02:24;3.50;;;2.83;;
65035;SDS011;51603;49.300;8.880;2023-04-24T04:04:50;2.17;;;1.97;;
65035;SDS011;51603;49.300;8.880;2023-04-24T04:07:15;6.00;;;2.90;;
65035;SDS011;51603;49.300;8.880;2023-04-24T04:09:41;3.10;;;2.67;;
65035;SDS011;51603;49.300;8.880;2023-04-24T04:12:07;2.57;;;2.33;;
65035;SDS011;51603;49.300;8.880;2023-04-24T04:14:32;4.60;;;2.33;;
65035;SDS011;51603;49.300;8.880;2023-04-24T04:16:58;3.30;;;3.00;;
65035;SDS011;51603;49.300;8.880;2023-04-24T04:19:23;4.10;;;2.47;;
65035;SDS011;51603;49.300;8.880;2023-04-24T04:21:49;3.47;;;3.17;;
65035;SDS011;51603;49.300;8.880;2023-04-24T04:24:18;3.00;;;2.70;;
65035;SDS011;51603;49.300;8.880;2023-04-24T04:26:45;3.10;;;2.47;;
65035;SDS011;51603;49.300;8.880;2023-04-24T04:29:12;2.87;;;2.30;;
65035;SDS011;51603;49.300;8.880;2023-04-24T04:31:38;8.70;;;2.50;;
65035;SDS011;51603;49.300;8.880;2023-04-24T04:34:03;3.20;;;2.73;;
65035;SDS011;51603;49.300;8.880;2023-04-24T04:36:29;3.40;;;3.10;;
65035;SDS011;51603;49.300;8.880;2023-04-24T04:38:54;3.30;;;3.00;;
65035;SDS011;51603;49.300;8.880;2023-04-24T04:41:21;4.07;;;3.00;;
65035;SDS011;51603;49.300;8.880;2023-04-24T04:43:47;3.60;;;2.87;;
65035;SDS011;51603;49.300;8.880;2023-04-24T04:46:13;3.30;;;3.00;;
65035;SDS011;51603;49.300;8.880;2023-04-24T04:48:38;4.00;;;3.60;;
65035;SDS011;51603;49.300;8.880;2023-04-24T04:51:04;3.43;;;3.13;;
65035;SDS011;51603;49.300;8.880;2023-04-24T04:53:30;3.43;;;3.13;;
65035;SDS011;51603;49.300;8.880;2023-04-24T04:55:55;3.97;;;3.67;;
65035;SDS011;51603;49.300;8.880;2023-04-24T04:58:21;3.57;;;3.27;;
65035;SDS011;51603;49.300;8.880;2023-04-24T05:00:47;5.03;;;3.57;;
65035;SDS011;51603;49.300;8.880;2023-04-24T05:03:13;3.70;;;3.40;;
65035;SDS011;51603;49.300;8.880;2023-04-24T05:05:39;3.80;;;3.50;;
65035;SDS011;51603;49.300;8.880;2023-04-24T05:08:06;3.63;;;3.33;;
65035;SDS011;51603;49.300;8.880;2023-04-24T05:10:34;3.83;;;3.53;;
65035;SDS011;51603;49.300;8.880;2023-04-24T05:13:01;4.50;;;3.60;;
65035;SDS011;51603;49.300;8.880;2023-04-24T05:15:27;4.30;;;3.90;;
65035;SDS011;51603;49.300;8.880;2023-04-24T05:17:53;4.80;;;4.23;;
65035;SDS011;51603;49.300;8.880;2023-04-24T05:20:18;4.67;;;4.27;;
65035;SDS011;51603;49.300;8.880;2023-04-24T05:22:44;4.67;;;3.97;;
65035;SDS011;51603;49.300;8.880;2023-04-24T05:25:09;4.70;;;4.23;;
65035;SDS011;51603;49.300;8.880;2023-04-24T05:27:37;3.97;;;3.30;;
65035;SDS011;51603;49.300;8.880;2023-04-24T05:30:03;5.00;;;4.40;;
65035;SDS011;51603;49.300;8.880;2023-04-24T05:32:29;5.53;;;4.27;;
65035;SDS011;51603;49.300;8.880;2023-04-24T05:34:55;4.50;;;4.10;;
65035;SDS011;51603;49.300;8.880;2023-04-24T05:37:20;4.50;;;4.13;;
65035;SDS011;51603;49.300;8.880;2023-04-24T05:39:46;5.07;;;4.57;;
65035;SDS011;51603;49.300;8.880;2023-04-24T05:42:11;4.90;;;4.50;;
65035;SDS011;51603;49.300;8.880;2023-04-24T05:44:37;9.00;;;4.57;;
65035;SDS011;51603;49.300;8.880;2023-04-24T05:47:03;4.60;;;4.27;;
65035;SDS011;51603;49.300;8.880;2023-04-24T05:49:28;5.80;;;4.90;;
65035;SDS011;51603;49.300;8.880;2023-04-24T05:51:54;4.70;;;4.20;;
65035;SDS011;51603;49.300;8.880;2023-04-24T05:54:19;4.93;;;4.50;;
65035;SDS011;51603;49.300;8.880;2023-04-24T05:56:45;6.27;;;5.67;;
65035;SDS011;51603;49.300;8.880;2023-04-24T05:59:11;5.30;;;4.47;;
65035;SDS011;51603;49.300;8.880;2023-04-24T06:01:36;5.90;;;5.33;;
65035;SDS011;51603;49.300;8.880;2023-04-24T06:04:03;6.20;;;5.60;;
65035;SDS011;51603;49.300;8.880;2023-04-24T06:06:29;5.73;;;4.93;;
65035;SDS011;51603;49.300;8.880;2023-04-24T06:08:55;5.80;;;5.30;;
65035;SDS011;51603;49.300;8.880;2023-04-24T06:11:21;6.00;;;5.40;;
65035;SDS011;51603;49.300;8.880;2023-04-24T06:13:47;4.97;;;4.57;;
65035;SDS011;51603;49.300;8.880;2023-04-24T06:16:13;4.90;;;4.50;;
65035;SDS011;51603;49.300;8.880;2023-04-24T06:18:38;5.93;;;4.90;;
65035;SDS011;51603;49.300;8.880;2023-04-24T06:21:04;5.10;;;4.60;;
65035;SDS011;51603;49.300;8.880;2023-04-24T06:23:30;4.97;;;4.47;;
65035;SDS011;51603;49.300;8.880;2023-04-24T06:25:57;4.53;;;4.13;;
65035;SDS011;51603;49.300;8.880;2023-04-24T06:28:23;6.47;;;4.10;;
65035;SDS011;51603;49.300;8.880;2023-04-24T06:30:49;4.40;;;4.00;;
65035;SDS011;51603;49.300;8.880;2023-04-24T06:33:15;4.73;;;4.23;;
65035;SDS011;51603;49.300;8.880;2023-04-24T06:35:41;4.10;;;3.70;;
65035;SDS011;51603;49.300;8.880;2023-04-24T06:38:07;5.40;;;4.80;;
65035;SDS011;51603;49.300;8.880;2023-04-24T06:40:33;4.77;;;4.37;;
65035;SDS011;51603;49.300;8.880;2023-04-24T06:42:58;4.33;;;3.93;;
65035;SDS011;51603;49.300;8.880;2023-04-24T06:45:25;5.43;;;4.40;;
65035;SDS011;51603;49.300;8.880;2023-04-24T06:47:50;7.00;;;4.67;;
65035;SDS011;51603;49.300;8.880;2023-04-24T06:50:16;4.47;;;4.07;;
65035;SDS011;51603;49.300;8.880;2023-04-24T06:52:42;4.77;;;4.30;;
65035;SDS011;51603;49.300;8.880;2023-04-24T06:55:07;4.60;;;4.13;;
65035;SDS011;51603;49.300;8.880;2023-04-24T06:57:33;6.23;;;4.70;;
65035;SDS011;51603;49.300;8.880;2023-04-24T06:59:58;4.40;;;3.97;;
65035;SDS011;51603;49.300;8.880;2023-04-24T07:02:24;4.17;;;3.77;;
65035;SDS011;51603;49.300;8.880;2023-04-24T07:04:50;4.77;;;4.37;;
65035;SDS011;51603;49.300;8.880;2023-04-24T07:07:16;4.10;;;3.70;;
65035;SDS011;51603;49.300;8.880;2023-04-24T07:09:41;4.43;;;4.03;;
65035;SDS011;51603;49.300;8.880;2023-04-24T07:12:07;6.27;;;3.80;;
65035;SDS011;51603;49.300;8.880;2023-04-24T07:14:35;5.90;;;4.00;;
65035;SDS011;51603;49.300;8.880;2023-04-24T07:17:02;3.87;;;2.90;;
65035;SDS011;51603;49.300;8.880;2023-04-24T07:19:28;2.97;;;2.57;;
65035;SDS011;51603;49.300;8.880;2023-04-24T07:21:54;4.20;;;3.10;;
65035;SDS011;51603;49.300;8.880;2023-04-24T07:24:20;5.63;;;2.87;;
65035;SDS011;51603;49.300;8.880;2023-04-24T07:26:46;4.77;;;2.70;;
65035;SDS011;51603;49.300;8.880;2023-04-24T07:29:11;3.10;;;2.70;;
65035;SDS011;51603;49.300;8.880;2023-04-24T07:31:38;3.97;;;3.03;;
65035;SDS011;51603;49.300;8.880;2023-04-24T07:34:03;2.60;;;2.40;;
65035;SDS011;51603;49.300;8.880;2023-04-24T07:36:29;4.03;;;3.63;;
65035;SDS011;51603;49.300;8.880;2023-04-24T07:38:55;3.70;;;2.50;;
65035;SDS011;51603;49.300;8.880;2023-04-24T07:41:21;2.77;;;2.53;;
65035;SDS011;51603;49.300;8.880;2023-04-24T07:43:47;4.03;;;2.40;;
65035;SDS011;51603;49.300;8.880;2023-04-24T07:46:13;3.60;;;2.30;;
65035;SDS011;51603;49.300;8.880;2023-04-24T07:48:38;4.27;;;2.80;;
65035;SDS011;51603;49.300;8.880;2023-04-24T07:51:04;3.43;;;1.47;;
65035;SDS011;51603;49.300;8.880;2023-04-24T07:53:30;7.20;;;2.07;;
65035;SDS011;51603;49.300;8.880;2023-04-24T07:55:55;2.27;;;1.80;;
65035;SDS011;51603;49.300;8.880;2023-04-24T07:58:21;3.33;;;2.23;;
65035;SDS011;51603;49.300;8.880;2023-04-24T08:00:47;4.40;;;2.10;;
65035;SDS011;51603;49.300;8.880;2023-04-24T08:03:13;4.27;;;2.30;;
65035;SDS011;51603;49.300;8.880;2023-04-24T08:05:39;2.50;;;1.90;;
65035;SDS011;51603;49.300;8.880;2023-04-24T08:08:06;3.07;;;2.07;;
65035;SDS011;51603;49.300;8.880;2023-04-24T08:10:32;2.70;;;2.07;;
65035;SDS011;51603;49.300;8.880;2023-04-24T08:12:57;2.60;;;1.80;;
65035;SDS011;51603;49.300;8.880;2023-04-24T08:15:23;2.20;;;2.00;;
65035;SDS011;51603;49.300;8.880;2023-04-24T08:17:49;2.67;;;2.30;;
65035;SDS011;51603;49.300;8.880;2023-04-24T08:20:15;2.90;;;2.30;;
65035;SDS011;51603;49.300;8.880;2023-04-24T08:22:41;3.30;;;2.40;;
65035;SDS011;51603;49.300;8.880;2023-04-24T08:25:08;2.40;;;2.20;;
65035;SDS011;51603;49.300;8.880;2023-04-24T08:27:34;3.63;;;2.03;;
65035;SDS011;51603;49.300;8.880;2023-04-24T08:30:02;3.37;;;2.37;;
65035;SDS011;51603;49.300;8.880;2023-04-24T08:32:28;2.60;;;2.40;;
65035;SDS011;51603;49.300;8.880;2023-04-24T08:34:54;2.37;;;1.80;;
65035;SDS011;51603;49.300;8.880;2023-04-24T08:37:21;2.10;;;1.90;;
65035;SDS011;51603;49.300;8.880;2023-04-24T08:39:47;2.30;;;1.50;;
65035;SDS011;51603;49.300;8.880;2023-04-24T08:42:13;3.00;;;1.97;;
65035;SDS011;51603;49.300;8.880;2023-04-24T08:44:40;2.20;;;1.63;;
65035;SDS011;51603;49.300;8.880;2023-04-24T08:47:06;2.90;;;1.97;;
65035;SDS011;51603;49.300;8.880;2023-04-24T08:49:33;3.40;;;2.30;;
65035;SDS011;51603;49.300;8.880;2023-04-24T08:52:00;4.93;;;2.47;;
65035;SDS011;51603;49.300;8.880;2023-04-24T08:54:27;3.40;;;2.50;;
65035;SDS011;51603;49.300;8.880;2023-04-24T08:56:53;3.53;;;2.33;;
65035;SDS011;51603;49.300;8.880;2023-04-24T08:59:26;5.10;;;2.00;;
65035;SDS011;51603;49.300;8.880;2023-04-24T09:01:52;2.47;;;2.20;;
65035;SDS011;51603;49.300;8.880;2023-04-24T09:04:19;2.00;;;1.80;;
65035;SDS011;51603;49.300;8.880;2023-04-24T09:06:47;5.60;;;2.47;;
65035;SDS011;51603;49.300;8.880;2023-04-24T09:09:13;2.77;;;2.30;;
65035;SDS011;51603;49.300;8.880;2023-04-24T09:11:41;2.30;;;2.10;;
65035;SDS011;51603;49.300;8.880;2023-04-24T09:14:07;3.60;;;2.80;;
65035;SDS011;51603;49.300;8.880;2023-04-24T09:16:35;4.80;;;2.23;;
65035;SDS011;51603;49.300;8.880;2023-04-24T09:19:01;2.37;;;2.17;;
65035;SDS011;51603;49.300;8.880;2023-04-24T09:21:31;2.90;;;2.53;;
65035;SDS011;51603;49.300;8.880;2023-04-24T09:23:58;4.80;;;2.23;;
65035;SDS011;51603;49.300;8.880;2023-04-24T09:26:29;3.47;;;1.73;;
65035;SDS011;51603;49.300;8.880;2023-04-24T09:28:56;5.00;;;1.87;;
65035;SDS011;51603;49.300;8.880;2023-04-24T09:31:22;3.23;;;2.10;;
65035;SDS011;51603;49.300;8.880;2023-04-24T09:33:55;2.30;;;2.10;;
65035;SDS011;51603;49.300;8.880;2023-04-24T09:36:39;3.50;;;1.90;;
65035;SDS011;51603;49.300;8.880;2023-04-24T09:39:07;4.53;;;2.43;;
65035;SDS011;51603;49.300;8.880;2023-04-24T09:41:35;4.73;;;2.07;;
65035;SDS011;51603;49.300;8.880;2023-04-24T09:44:14;2.60;;;1.90;;
65035;SDS011;51603;49.300;8.880;2023-04-24T09:46:49;4.20;;;1.83;;
65035;SDS011;51603;49.300;8.880;2023-04-24T09:49:16;3.30;;;1.83;;
65035;SDS011;51603;49.300;8.880;2023-04-24T09:51:47;3.90;;;2.63;;
65035;SDS011;51603;49.300;8.880;2023-04-24T09:54:16;4.10;;;2.00;;
65035;SDS011;51603;49.300;8.880;2023-04-24T09:56:45;1.80;;;1.70;;
65035;SDS011;51603;49.300;8.880;2023-04-24T09:59:13;3.33;;;1.73;;
65035;SDS011;51603;49.300;8.880;2023-04-24T10:01:39;2.27;;;2.07;;
65035;SDS011;51603;49.300;8.880;2023-04-24T10:04:14;3.07;;;2.13;;
65035;SDS011;51603;49.300;8.880;2023-04-24T10:06:42;4.60;;;2.00;;
65035;SDS011;51603;49.300;8.880;2023-04-24T10:09:08;2.80;;;2.40;;
65035;SDS011;51603;49.300;8.880;2023-04-24T10:11:35;2.70;;;1.93;;
65035;SDS011;51603;49.300;8.880;2023-04-24T10:14:02;3.77;;;2.40;;
65035;SDS011;51603;49.300;8.880;2023-04-24T10:16:28;2.87;;;2.57;;
65035;SDS011;51603;49.300;8.880;2023-04-24T10:18:56;2.60;;;2.40;;
65035;SDS011;51603;49.300;8.880;2023-04-24T10:21:24;2.50;;;2.30;;
65035;SDS011;51603;49.300;8.880;2023-04-24T10:23:51;3.00;;;2.70;;
65035;SDS011;51603;49.300;8.880;2023-04-24T10:26:18;4.57;;;2.90;;
65035;SDS011;51603;49.300;8.880;2023-04-24T10:28:45;5.03;;;4.63;;
65035;SDS011;51603;49.300;8.880;2023-04-24T10:31:12;6.00;;;4.73;;
65035;SDS011;51603;49.300;8.880;2023-04-24T10:33:40;6.13;;;3.33;;
65035;SDS011;51603;49.300;8.880;2023-04-24T10:36:07;2.70;;;2.50;;
65035;SDS011;51603;49.300;8.880;2023-04-24T10:38:34;4.50;;;3.43;;
65035;SDS011;51603;49.300;8.880;2023-04-24T10:41:11;3.80;;;3.47;;
65035;SDS011;51603;49.300;8.880;2023-04-24T10:43:42;4.40;;;3.90;;
65035;SDS011;51603;49.300;8.880;2023-04-24T10:46:08;16.93;;;11.40;;
65035;SDS011;51603;49.300;8.880;2023-04-24T10:48:35;20.87;;;12.47;;
65035;SDS011;51603;49.300;8.880;2023-04-24T10:51:10;31.50;;;16.60;;
65035;SDS011;51603;49.300;8.880;2023-04-24T10:53:37;25.23;;;14.07;;
65035;SDS011;51603;49.300;8.880;2023-04-24T10:58:40;82.83;;;37.50;;
65035;SDS011;51603;49.300;8.880;2023-04-24T11:01:09;28.13;;;15.00;;
65035;SDS011;51603;49.300;8.880;2023-04-24T11:03:56;47.50;;;20.97;;
65035;SDS011;51603;49.300;8.880;2023-04-24T11:06:29;6.73;;;6.00;;
65035;SDS011;51603;49.300;8.880;2023-04-24T11:09:09;6.57;;;5.90;;
65035;SDS011;51603;49.300;8.880;2023-04-24T11:11:37;5.90;;;5.40;;
65035;SDS011;51603;49.300;8.880;2023-04-24T11:14:09;5.53;;;5.00;;
65035;SDS011;51603;49.300;8.880;2023-04-24T11:19:11;5.87;;;5.37;;
65035;SDS011;51603;49.300;8.880;2023-04-24T11:21:59;6.13;;;5.53;;
65035;SDS011;51603;49.300;8.880;2023-04-24T11:24:27;5.43;;;5.03;;
65035;SDS011;51603;49.300;8.880;2023-04-24T11:26:55;5.60;;;5.10;;
65035;SDS011;51603;49.300;8.880;2023-04-24T11:34:57;4.87;;;4.43;;
65035;SDS011;51603;49.300;8.880;2023-04-24T11:37:35;5.90;;;4.90;;
65035;SDS011;51603;49.300;8.880;2023-04-24T11:40:03;6.00;;;4.30;;
65035;SDS011;51603;49.300;8.880;2023-04-24T11:42:33;5.50;;;4.60;;
65035;SDS011;51603;49.300;8.880;2023-04-24T11:45:07;5.00;;;4.50;;
65035;SDS011;51603;49.300;8.880;2023-04-24T11:47:41;4.70;;;4.20;;
65035;SDS011;51603;49.300;8.880;2023-04-24T11:50:09;5.73;;;4.20;;
65035;SDS011;51603;49.300;8.880;2023-04-24T11:52:46;6.20;;;4.73;;
65035;SDS011;51603;49.300;8.880;2023-04-24T12:00:24;4.10;;;3.70;;
65035;SDS011;51603;49.300;8.880;2023-04-24T12:02:51;5.23;;;3.67;;
65035;SDS011;51603;49.300;8.880;2023-04-24T12:05:28;4.20;;;3.80;;
65035;SDS011;51603;49.300;8.880;2023-04-24T12:07:56;4.63;;;4.13;;
65035;SDS011;51603;49.300;8.880;2023-04-24T12:10:25;5.40;;;4.47;;
65035;SDS011;51603;49.300;8.880;2023-04-24T12:12:55;8.07;;;7.23;;
65035;SDS011;51603;49.300;8.880;2023-04-24T12:15:21;4.23;;;3.50;;
65035;SDS011;51603;49.300;8.880;2023-04-24T12:17:47;4.50;;;4.10;;
65035;SDS011;51603;49.300;8.880;2023-04-24T12:20:15;7.90;;;5.10;;
65035;SDS011;51603;49.300;8.880;2023-04-24T12:22:49;4.57;;;4.00;;
65035;SDS011;51603;49.300;8.880;2023-04-24T12:25:19;5.00;;;3.73;;
65035;SDS011;51603;49.300;8.880;2023-04-24T12:27:53;4.80;;;4.40;;
65035;SDS011;51603;49.300;8.880;2023-04-24T12:30:19;5.00;;;3.97;;
65035;SDS011;51603;49.300;8.880;2023-04-24T12:32:48;4.63;;;4.20;;
65035;SDS011;51603;49.300;8.880;2023-04-24T12:35:22;10.00;;;4.57;;
65035;SDS011;51603;49.300;8.880;2023-04-24T12:37:48;5.30;;;4.03;;
65035;SDS011;51603;49.300;8.880;2023-04-24T12:40:15;5.43;;;4.83;;
65035;SDS011;51603;49.300;8.880;2023-04-24T12:42:50;5.97;;;5.47;;
65035;SDS011;51603;49.300;8.880;2023-04-24T12:45:17;5.70;;;4.57;;
65035;SDS011;51603;49.300;8.880;2023-04-24T12:47:43;6.70;;;6.10;;
65035;SDS011;51603;49.300;8.880;2023-04-24T12:50:11;6.57;;;5.37;;
65035;SDS011;51603;49.300;8.880;2023-04-24T12:52:38;4.50;;;4.07;;
65035;SDS011;51603;49.300;8.880;2023-04-24T12:55:05;6.47;;;4.67;;
65035;SDS011;51603;49.300;8.880;2023-04-24T12:57:33;4.47;;;4.10;;
65035;SDS011;51603;49.300;8.880;2023-04-24T12:59:59;4.50;;;4.10;;
65035;SDS011;51603;49.300;8.880;2023-04-24T13:02:26;4.10;;;3.70;;
65035;SDS011;51603;49.300;8.880;2023-04-24T13:04:57;5.40;;;3.80;;
65035;SDS011;51603;49.300;8.880;2023-04-24T13:07:23;8.93;;;4.43;;
65035;SDS011;51603;49.300;8.880;2023-04-24T13:09:49;4.63;;;3.90;;
65035;SDS011;51603;49.300;8.880;2023-04-24T13:12:16;6.57;;;3.63;;
65035;SDS011;51603;49.300;8.880;2023-04-24T13:14:42;6.50;;;4.77;;
65035;SDS011;51603;49.300;8.880;2023-04-24T13:17:07;4.67;;;4.00;;
65035;SDS011;51603;49.300;8.880;2023-04-24T13:19:37;4.40;;;3.47;;
65035;SDS011;51603;49.300;8.880;2023-04-24T13:22:04;6.70;;;3.27;;
65035;SDS011;51603;49.300;8.880;2023-04-24T13:24:30;4.30;;;3.90;;
65035;SDS011;51603;49.300;8.880;2023-04-24T13:26:56;4.17;;;3.60;;
65035;SDS011;51603;49.300;8.880;2023-04-24T13:29:22;4.53;;;3.67;;
65035;SDS011;51603;49.300;8.880;2023-04-24T13:31:51;4.00;;;3.37;;
65035;SDS011;51603;49.300;8.880;2023-04-24T13:34:19;5.20;;;3.37;;
65035;SDS011;51603;49.300;8.880;2023-04-24T13:36:46;4.00;;;3.57;;
65035;SDS011;51603;49.300;8.880;2023-04-24T13:39:11;4.17;;;3.77;;
65035;SDS011;51603;49.300;8.880;2023-04-24T13:41:37;4.90;;;3.90;;
65035;SDS011;51603;49.300;8.880;2023-04-24T13:44:03;4.27;;;3.87;;
65035;SDS011;51603;49.300;8.880;2023-04-24T13:46:29;6.33;;;4.37;;
65035;SDS011;51603;49.300;8.880;2023-04-24T13:48:55;5.03;;;4.20;;
65035;SDS011;51603;49.300;8.880;2023-04-24T13:51:21;4.03;;;3.60;;
65035;SDS011;51603;49.300;8.880;2023-04-24T13:53:48;11.53;;;3.70;;
65035;SDS011;51603;49.300;8.880;2023-04-24T13:56:13;4.77;;;4.13;;
65035;SDS011;51603;49.300;8.880;2023-04-24T13:58:39;4.63;;;3.83;;
65035;SDS011;51603;49.300;8.880;2023-04-24T14:01:05;5.63;;;3.87;;
65035;SDS011;51603;49.300;8.880;2023-04-24T14:03:31;4.33;;;3.90;;
65035;SDS011;51603;49.300;8.880;2023-04-24T14:05:57;8.77;;;4.67;;
65035;SDS011;51603;49.300;8.880;2023-04-24T14:08:23;3.80;;;3.50;;
65035;SDS011;51603;49.300;8.880;2023-04-24T14:10:49;4.47;;;3.43;;
65035;SDS011;51603;49.300;8.880;2023-04-24T14:13:15;4.50;;;3.60;;
65035;SDS011;51603;49.300;8.880;2023-04-24T14:15:41;4.20;;;3.70;;
65035;SDS011;51603;49.300;8.880;2023-04-24T14:18:07;4.20;;;3.80;;
65035;SDS011;51603;49.300;8.880;2023-04-24T14:20:32;5.77;;;5.00;;
65035;SDS011;51603;49.300;8.880;2023-04-24T14:22:58;5.27;;;3.93;;
65035;SDS011;51603;49.300;8.880;2023-04-24T14:25:24;3.63;;;3.33;;
65035;SDS011;51603;49.300;8.880;2023-04-24T14:27:50;4.23;;;3.83;;
65035;SDS011;51603;49.300;8.880;2023-04-24T14:30:15;4.20;;;3.80;;
65035;SDS011;51603;49.300;8.880;2023-04-24T14:32:41;6.17;;;3.90;;
65035;SDS011;51603;49.300;8.880;2023-04-24T14:35:07;4.50;;;4.10;;
65035;SDS011;51603;49.300;8.880;2023-04-24T14:37:33;3.87;;;3.57;;
65035;SDS011;51603;49.300;8.880;2023-04-24T14:39:58;3.80;;;3.50;;
65035;SDS011;51603;49.300;8.880;2023-04-24T14:42:24;4.33;;;4.03;;
65035;SDS011;51603;49.300;8.880;2023-04-24T14:44:49;5.13;;;4.40;;
65035;SDS011;51603;49.300;8.880;2023-04-24T14:47:16;4.07;;;3.33;;
65035;SDS011;51603;49.300;8.880;2023-04-24T14:49:42;3.60;;;3.30;;
65035;SDS011;51603;49.300;8.880;2023-04-24T14:52:09;5.03;;;4.13;;
65035;SDS011;51603;49.300;8.880;2023-04-24T14:54:35;4.40;;;3.97;;
65035;SDS011;51603;49.300;8.880;2023-04-24T14:57:00;4.83;;;4.33;;
65035;SDS011;51603;49.300;8.880;2023-04-24T14:59:27;3.80;;;3.50;;
65035;SDS011;51603;49.300;8.880;2023-04-24T15:01:53;4.43;;;4.07;;